createdAt,value
2018-11-29T00:02:09.194Z,3.00
2018-11-29T00:04:37.297Z,3.00
2018-11-29T00:07:05.608Z,3.00
2018-11-29T00:09:38.784Z,2.90
2018-11-29T00:12:07.660Z,2.90
2018-11-29T00:14:36.627Z,2.80
2018-11-29T00:17:04.723Z,2.90
2018-11-29T00:19:32.843Z,2.80
2018-11-29T00:22:00.924Z,2.80
2018-11-29T00:24:29.010Z,2.80
2018-11-29T00:26:57.094Z,2.70
2018-11-29T00:29:25.167Z,2.70
2018-11-29T00:31:53.368Z,2.70
2018-11-29T00:34:21.451Z,2.70
2018-11-29T00:36:49.514Z,2.80
2018-11-29T00:39:17.589Z,2.80
2018-11-29T00:41:45.663Z,2.90
2018-11-29T00:44:13.766Z,2.80
2018-11-29T00:46:41.828Z,2.90
2018-11-29T00:49:09.922Z,2.90
2018-11-29T00:51:38.008Z,2.90
2018-11-29T00:54:06.095Z,3.00
2018-11-29T00:56:34.163Z,3.00
2018-11-29T00:59:02.245Z,3.00
2018-11-29T01:01:30.338Z,3.10
2018-11-29T01:03:58.393Z,3.00
2018-11-29T01:06:26.494Z,3.00
2018-11-29T01:08:54.596Z,3.00
2018-11-29T01:11:22.692Z,3.00
2018-11-29T01:13:50.779Z,3.00
2018-11-29T01:16:18.845Z,3.00
2018-11-29T01:18:46.948Z,2.90
2018-11-29T01:21:15.030Z,2.90
2018-11-29T01:23:43.094Z,2.90
2018-11-29T01:26:11.168Z,2.90
2018-11-29T01:28:39.276Z,3.00
2018-11-29T01:31:07.387Z,3.00
2018-11-29T01:33:35.436Z,3.00
2018-11-29T01:36:03.526Z,3.00
2018-11-29T01:38:31.605Z,2.90
2018-11-29T01:40:59.709Z,2.80
2018-11-29T01:43:27.776Z,2.80
2018-11-29T01:45:55.911Z,2.70
2018-11-29T01:48:23.991Z,2.70
2018-11-29T01:50:52.036Z,2.60
2018-11-29T01:53:20.113Z,2.60
2018-11-29T01:55:48.199Z,2.60
2018-11-29T01:58:16.260Z,2.60
2018-11-29T02:00:44.332Z,2.60
2018-11-29T02:03:12.434Z,2.60
2018-11-29T02:05:40.515Z,2.70
2018-11-29T02:08:08.613Z,2.70
2018-11-29T02:10:52.462Z,2.70
2018-11-29T02:13:20.701Z,2.60
2018-11-29T02:15:48.796Z,2.60
2018-11-29T02:18:16.945Z,2.60
2018-11-29T02:20:45.045Z,2.60
2018-11-29T02:23:13.129Z,2.60
2018-11-29T02:25:41.186Z,2.50
2018-11-29T02:28:09.258Z,2.50
2018-11-29T02:30:37.366Z,2.40
2018-11-29T02:33:05.473Z,2.50
2018-11-29T02:35:33.548Z,2.50
2018-11-29T02:38:01.791Z,2.40
2018-11-29T02:40:29.887Z,2.40
2018-11-29T02:42:57.963Z,2.30
2018-11-29T02:45:26.031Z,2.30
2018-11-29T02:47:54.137Z,2.30
2018-11-29T02:50:22.212Z,2.30
2018-11-29T02:52:50.312Z,2.30
2018-11-29T02:55:18.389Z,2.30
2018-11-29T02:57:46.487Z,2.30
2018-11-29T03:00:16.475Z,2.30
2018-11-29T03:02:44.596Z,2.30
2018-11-29T03:05:12.694Z,2.20
2018-11-29T03:07:40.814Z,2.20
2018-11-29T03:10:10.801Z,2.20
2018-11-29T03:12:38.901Z,2.20
2018-11-29T03:15:11.272Z,2.20
2018-11-29T03:17:39.463Z,2.20
2018-11-29T03:20:08.830Z,2.10
2018-11-29T03:22:36.921Z,2.10
2018-11-29T03:25:07.361Z,2.10
2018-11-29T03:27:35.450Z,2.20
2018-11-29T03:30:03.688Z,2.20
2018-11-29T03:32:31.787Z,2.10
2018-11-29T03:34:59.868Z,2.00
2018-11-29T03:37:27.989Z,2.10
2018-11-29T03:39:56.163Z,2.10
2018-11-29T03:42:24.309Z,2.10
2018-11-29T03:44:52.400Z,2.10
2018-11-29T03:47:20.478Z,2.10
2018-11-29T03:49:48.564Z,2.20
2018-11-29T03:52:16.653Z,2.20
2018-11-29T03:54:44.736Z,2.20
2018-11-29T03:57:12.818Z,2.20
2018-11-29T03:59:40.948Z,2.20
2018-11-29T04:02:09.024Z,2.10
2018-11-29T04:04:37.110Z,2.10
2018-11-29T04:07:06.000Z,2.00
2018-11-29T04:09:34.110Z,1.80
2018-11-29T04:12:02.299Z,1.80
2018-11-29T04:14:30.355Z,1.80
2018-11-29T04:16:58.448Z,1.80
2018-11-29T04:19:26.541Z,1.70
2018-11-29T04:21:55.315Z,1.60
2018-11-29T04:24:23.402Z,1.50
2018-11-29T04:26:51.492Z,1.50
2018-11-29T04:29:19.866Z,1.50
2018-11-29T04:31:47.972Z,1.50
2018-11-29T04:34:16.112Z,1.50
2018-11-29T04:36:44.195Z,1.50
2018-11-29T04:39:12.296Z,1.40
2018-11-29T04:41:40.399Z,1.40
2018-11-29T04:44:08.471Z,1.40
2018-11-29T04:46:52.714Z,1.40
2018-11-29T04:49:20.812Z,1.40
2018-11-29T04:51:48.918Z,1.40
2018-11-29T04:54:17.014Z,1.50
2018-11-29T04:56:45.096Z,1.50
2018-11-29T04:59:13.158Z,1.50
2018-11-29T05:01:41.252Z,1.40
2018-11-29T05:04:09.374Z,1.40
2018-11-29T05:06:37.453Z,1.40
2018-11-29T05:09:07.987Z,1.40
2018-11-29T05:11:36.150Z,1.40
2018-11-29T05:14:05.435Z,1.40
2018-11-29T05:16:33.514Z,1.30
2018-11-29T05:19:01.596Z,1.30
2018-11-29T05:21:29.682Z,1.30
2018-11-29T05:23:57.775Z,1.50
2018-11-29T05:26:25.844Z,1.40
2018-11-29T05:28:53.945Z,1.30
2018-11-29T05:31:22.034Z,1.30
2018-11-29T05:33:50.147Z,1.20
2018-11-29T05:36:18.228Z,1.30
2018-11-29T05:38:46.285Z,1.30
2018-11-29T05:41:14.361Z,1.30
2018-11-29T05:43:42.451Z,1.20
2018-11-29T05:46:10.565Z,1.20
2018-11-29T05:48:38.658Z,1.20
2018-11-29T05:51:06.774Z,1.20
2018-11-29T05:53:34.913Z,1.20
2018-11-29T05:56:03.066Z,1.20
2018-11-29T05:58:31.168Z,1.20
2018-11-29T06:01:02.975Z,1.10
2018-11-29T06:03:31.053Z,0.90
2018-11-29T06:05:59.159Z,0.90
2018-11-29T06:08:27.256Z,1.00
2018-11-29T06:10:55.361Z,1.00
2018-11-29T06:13:23.450Z,1.00
2018-11-29T06:15:51.536Z,1.00
2018-11-29T06:18:19.625Z,1.00
2018-11-29T06:20:47.716Z,1.10
2018-11-29T06:23:15.916Z,1.10
2018-11-29T06:25:44.045Z,1.20
2018-11-29T06:30:45.565Z,1.20
2018-11-29T06:33:13.644Z,1.20
2018-11-29T06:35:41.708Z,1.10
2018-11-29T06:38:09.792Z,1.10
2018-11-29T06:40:37.870Z,1.10
2018-11-29T06:43:05.967Z,1.00
2018-11-29T06:45:34.055Z,1.10
2018-11-29T06:48:02.134Z,1.00
2018-11-29T06:50:30.388Z,1.00
2018-11-29T06:52:58.495Z,1.10
2018-11-29T06:55:26.619Z,1.20
2018-11-29T06:57:54.703Z,1.20
2018-11-29T07:00:30.956Z,1.20
2018-11-29T07:02:59.038Z,1.30
2018-11-29T07:05:27.111Z,1.20
2018-11-29T07:07:55.211Z,1.30
2018-11-29T07:10:28.598Z,1.30
2018-11-29T07:12:56.723Z,1.30
2018-11-29T07:15:24.794Z,1.30
2018-11-29T07:17:52.853Z,1.30
2018-11-29T07:20:20.925Z,1.30
2018-11-29T07:22:49.036Z,1.30
2018-11-29T07:25:17.100Z,1.40
2018-11-29T07:27:45.163Z,1.40
2018-11-29T07:30:17.909Z,1.40
2018-11-29T07:32:46.263Z,1.50
2018-11-29T07:35:15.321Z,1.50
2018-11-29T07:37:43.464Z,1.60
2018-11-29T07:40:12.688Z,1.60
2018-11-29T07:42:40.921Z,1.60
2018-11-29T07:45:16.939Z,1.70
2018-11-29T07:47:45.400Z,1.80
2018-11-29T07:50:15.675Z,1.80
2018-11-29T07:52:43.716Z,1.90
2018-11-29T07:55:15.882Z,2.10
2018-11-29T07:57:44.444Z,2.20
2018-11-29T08:00:13.524Z,2.30
2018-11-29T08:02:41.616Z,2.40
2018-11-29T08:05:10.825Z,2.50
2018-11-29T08:07:39.744Z,2.70
2018-11-29T08:10:09.555Z,2.80
2018-11-29T08:12:37.810Z,2.90
2018-11-29T08:15:07.751Z,3.00
2018-11-29T08:17:35.810Z,3.20
2018-11-29T08:20:06.317Z,3.20
2018-11-29T08:22:34.425Z,3.30
2018-11-29T08:25:02.514Z,3.40
2018-11-29T08:27:30.588Z,3.60
2018-11-29T08:29:58.673Z,3.70
2018-11-29T08:32:26.740Z,3.80
2018-11-29T08:34:54.828Z,3.80
2018-11-29T08:37:22.906Z,3.90
2018-11-29T08:39:50.985Z,3.90
2018-11-29T08:42:19.044Z,4.00
2018-11-29T08:44:47.122Z,4.00
2018-11-29T08:47:15.206Z,3.90
2018-11-29T08:49:43.270Z,3.80
2018-11-29T08:52:11.332Z,3.90
2018-11-29T08:54:39.382Z,3.90
2018-11-29T08:57:07.446Z,4.00
2018-11-29T08:59:35.479Z,4.00
2018-11-29T09:02:03.534Z,4.10
2018-11-29T09:04:31.566Z,4.10
2018-11-29T09:06:59.602Z,4.10
2018-11-29T09:09:27.663Z,4.20
2018-11-29T09:11:55.727Z,4.20
2018-11-29T09:14:23.768Z,4.30
2018-11-29T09:16:51.821Z,4.40
2018-11-29T09:20:23.463Z,4.50
2018-11-29T09:22:51.498Z,4.50
2018-11-29T09:25:20.692Z,4.60
2018-11-29T09:27:48.753Z,4.80
2018-11-29T09:30:18.800Z,4.80
2018-11-29T09:32:47.808Z,4.80
2018-11-29T09:35:15.886Z,5.00
2018-11-29T09:37:43.931Z,5.10
2018-11-29T09:40:13.844Z,5.20
2018-11-29T09:42:41.945Z,5.20
2018-11-29T09:45:13.268Z,5.30
2018-11-29T09:47:41.322Z,5.40
2018-11-29T09:50:11.552Z,5.50
2018-11-29T09:52:40.039Z,5.50
2018-11-29T09:55:09.335Z,5.60
2018-11-29T09:57:37.414Z,5.80
2018-11-29T10:00:13.891Z,6.00
2018-11-29T10:05:11.268Z,6.30
2018-11-29T10:15:03.851Z,7.00
2018-11-29T10:17:31.888Z,7.10
2018-11-29T10:22:27.770Z,7.10
2018-11-29T10:24:55.797Z,7.10
2018-11-29T10:27:23.855Z,7.10
2018-11-29T10:29:51.902Z,7.20
2018-11-29T20:51:47.029Z,3.20
2018-11-29T20:54:15.078Z,3.10
2018-11-29T20:56:43.170Z,3.10
2018-11-29T20:59:11.208Z,3.20
2018-11-29T21:01:39.341Z,3.20
2018-11-29T21:04:07.338Z,3.10
2018-11-29T21:06:35.383Z,3.10
2018-11-29T21:09:03.975Z,3.10
2018-11-29T21:11:32.023Z,3.10
2018-11-29T21:14:00.084Z,3.00
2018-11-29T21:16:28.117Z,2.90
2018-11-29T21:18:56.163Z,2.90
2018-11-29T21:21:24.256Z,2.90
2018-11-29T21:23:52.321Z,2.80
2018-11-29T21:26:20.406Z,2.80
2018-11-29T21:28:48.459Z,2.80
2018-11-29T21:31:16.566Z,2.80
2018-11-29T21:33:44.607Z,2.80
2018-11-29T21:36:12.660Z,2.80
2018-11-29T21:38:40.684Z,2.90
2018-11-29T21:41:08.735Z,2.80
2018-11-29T21:43:36.802Z,2.80
2018-11-29T21:46:04.864Z,2.70
2018-11-29T21:48:32.888Z,2.80
2018-11-29T21:51:00.933Z,2.70
2018-11-29T21:53:28.979Z,2.80
2018-11-29T21:55:57.040Z,2.80
2018-11-29T21:58:25.158Z,2.70
2018-11-29T22:00:53.234Z,2.60
2018-11-29T22:03:21.306Z,2.60
2018-11-29T22:05:49.347Z,2.50
2018-11-29T22:08:17.360Z,2.50
2018-11-29T22:10:45.707Z,2.40
2018-11-29T22:13:13.866Z,2.40
2018-11-29T22:15:41.914Z,2.50
2018-11-29T22:18:19.820Z,2.50
2018-11-29T22:20:50.222Z,2.50
2018-11-29T22:23:18.186Z,2.50
2018-11-29T22:25:46.226Z,2.50
2018-11-29T22:28:14.305Z,2.50
2018-11-29T22:30:42.356Z,2.60
2018-11-29T22:33:10.378Z,2.60
2018-11-29T22:35:38.414Z,2.60
2018-11-29T22:38:07.073Z,2.60
2018-11-29T22:40:35.133Z,2.60
2018-11-29T22:43:03.336Z,2.60
2018-11-29T22:45:31.412Z,2.70
2018-11-29T22:47:59.491Z,2.70
2018-11-29T22:50:27.540Z,2.70
2018-11-29T22:52:55.644Z,2.70
2018-11-29T22:55:23.702Z,2.60
2018-11-29T22:57:51.740Z,2.60
2018-11-29T23:00:20.218Z,2.60
2018-11-29T23:02:49.355Z,2.60
2018-11-29T23:05:17.476Z,2.60
2018-11-29T23:07:45.623Z,2.60
2018-11-29T23:10:13.790Z,2.50
2018-11-29T23:12:41.964Z,2.40
2018-11-29T23:15:11.298Z,2.30
2018-11-29T23:17:40.064Z,2.30
2018-11-29T23:20:11.567Z,2.30
2018-11-29T23:22:40.218Z,2.30
2018-11-29T23:25:09.970Z,2.30
2018-11-29T23:27:38.087Z,2.30
2018-11-29T23:30:14.488Z,2.30
2018-11-29T23:32:42.968Z,2.30
2018-11-29T23:35:11.868Z,2.30
2018-11-29T23:37:40.000Z,2.30
2018-11-29T23:40:10.573Z,2.40
2018-11-29T23:42:38.769Z,2.40
2018-11-29T23:45:08.455Z,2.40
2018-11-29T23:47:36.724Z,2.40
2018-11-29T23:50:07.450Z,2.50
2018-11-29T23:52:35.607Z,2.50
2018-11-29T23:55:03.921Z,2.60
2018-11-29T23:57:32.113Z,2.60
